Time;durP1;ratioP1;P1;durP2;ratioP2;P2;SDS_P1;SDS_P2;PMS_P1;PMS_P2;Temp;Humidity;BMP_temperature;BMP_pressure;BME280_temperature;BME280_humidity;BME280_pressure;Samples;Min_cycle;Max_cycle;Signal;HPM_P1;HPM_P2
2022/10/27 00:00:53;;;;;;;9.27;2.53;;;;;;;13.42;100.00;102034.28;5276710;28;20028;-73
2022/10/27 00:03:30;;;;;;;6.73;2.40;;;;;;;13.45;100.00;102042.03;5277138;28;20048;-73
2022/10/27 00:06:04;;;;;;;8.47;3.23;;;;;;;13.38;100.00;102038.00;5276320;28;20554;-73
2022/10/27 00:08:36;;;;;;;6.50;2.83;;;;;;;13.32;100.00;102041.81;5276137;28;20024;-73
2022/10/27 00:11:07;;;;;;;10.83;3.07;;;;;;;13.31;100.00;102046.25;5278966;28;20443;-73
2022/10/27 00:13:39;;;;;;;6.27;2.30;;;;;;;13.34;100.00;102041.72;5276598;28;20059;-72
2022/10/27 00:16:14;;;;;;;7.77;2.30;;;;;;;13.22;100.00;102044.06;5276953;28;20471;-73
2022/10/27 00:18:45;;;;;;;8.60;2.93;;;;;;;13.19;100.00;102044.25;5285663;28;20028;-73
2022/10/27 00:21:19;;;;;;;6.97;2.50;;;;;;;13.28;100.00;102038.47;5287197;28;20028;-73
2022/10/27 00:24:01;;;;;;;8.38;2.47;;;;;;;13.31;100.00;102045.38;5268992;28;20132;-75
2022/10/27 00:26:32;;;;;;;3.40;2.40;;;;;;;13.26;100.00;102052.66;5290003;28;20707;-74
2022/10/27 00:29:03;;;;;;;7.13;2.47;;;;;;;13.20;100.00;102040.66;5284007;28;20080;-72
2022/10/27 00:31:35;;;;;;;6.63;2.80;;;;;;;13.19;100.00;102052.13;5274339;28;20033;-73
2022/10/27 00:34:06;;;;;;;6.63;2.30;;;;;;;13.17;100.00;102043.47;5276783;28;20111;-74
2022/10/27 00:36:37;;;;;;;6.70;2.40;;;;;;;13.16;100.00;102052.28;5277358;28;20086;-74
2022/10/27 00:39:09;;;;;;;9.37;2.57;;;;;;;13.41;100.00;102048.38;5278459;28;20100;-73
2022/10/27 00:41:41;;;;;;;7.30;2.60;;;;;;;13.36;100.00;102055.66;5267369;28;20108;-72
2022/10/27 00:44:36;;;;;;;9.33;3.00;;;;;;;13.38;100.00;102054.66;5286448;28;20027;-75
2022/10/27 00:47:26;;;;;;;7.03;2.40;;;;;;;13.26;100.00;102056.16;5258705;28;20071;-73
2022/10/27 00:50:21;;;;;;;6.93;2.60;;;;;;;13.39;100.00;102063.38;5274110;28;20024;-72
2022/10/27 00:52:56;;;;;;;6.60;2.22;;;;;;;13.42;100.00;102064.06;5276778;28;20044;-73
2022/10/27 00:55:33;;;;;;;8.63;3.10;;;;;;;13.42;100.00;102065.88;5280703;28;20071;-74
2022/10/27 00:58:11;;;;;;;6.27;2.57;;;;;;;13.41;100.00;102061.53;5276192;28;20025;-73
2022/10/27 01:00:42;;;;;;;6.47;2.27;;;;;;;13.34;100.00;102060.13;5275387;28;20025;-74
2022/10/27 01:03:19;;;;;;;12.00;3.43;;;;;;;13.38;100.00;102064.31;5258351;28;20712;-74
2022/10/27 01:06:11;;;;;;;8.13;2.47;;;;;;;13.41;100.00;102067.66;5275759;28;20028;-75
2022/10/27 01:08:43;;;;;;;9.77;2.70;;;;;;;13.47;100.00;102061.22;5276063;28;20035;-72
2022/10/27 01:11:15;;;;;;;7.90;2.80;;;;;;;13.43;100.00;102062.31;5258677;28;20016;-75
2022/10/27 01:13:46;;;;;;;7.53;2.60;;;;;;;13.25;100.00;102057.06;5275755;28;20059;-73
2022/10/27 01:16:25;;;;;;;8.83;3.33;;;;;;;13.50;100.00;102062.81;5277015;28;20040;-73
2022/10/27 01:19:01;;;;;;;8.00;2.60;;;;;;;13.38;100.00;102070.44;5260553;28;20546;-75
2022/10/27 01:21:47;;;;;;;7.40;2.80;;;;;;;13.57;100.00;102074.75;5275676;28;20087;-73
2022/10/27 01:24:42;;;;;;;5.83;2.87;;;;;;;13.58;100.00;102076.44;5258677;28;20032;-75
2022/10/27 01:27:39;;;;;;;8.70;3.13;;;;;;;13.60;100.00;102068.47;5226856;28;20055;-74
2022/10/27 01:30:18;;;;;;;11.03;3.33;;;;;;;13.64;100.00;102067.38;5276034;28;20036;-73
2022/10/27 01:33:17;;;;;;;13.17;3.20;;;;;;;13.67;100.00;102072.47;5276292;28;20047;-73
2022/10/27 01:36:13;;;;;;;6.33;2.67;;;;;;;13.70;100.00;102069.69;5275307;28;20032;-72
2022/10/27 01:38:57;;;;;;;8.10;2.90;;;;;;;13.65;100.00;102066.44;5276678;28;20059;-72
2022/10/27 01:41:47;;;;;;;9.23;3.90;;;;;;;13.73;100.00;102077.44;5279451;28;20085;-74
2022/10/27 01:44:24;;;;;;;10.13;3.13;;;;;;;13.64;100.00;102068.25;5276619;28;20123;-73
2022/10/27 01:46:56;;;;;;;9.10;3.87;;;;;;;13.68;100.00;102068.94;5275608;28;20029;-73
2022/10/27 01:49:39;;;;;;;7.13;3.17;;;;;;;13.67;100.00;102073.34;5275176;28;20060;-74
2022/10/27 01:52:41;;;;;;;9.47;3.23;;;;;;;13.74;100.00;102073.00;5274928;28;20025;-74
2022/10/27 01:55:17;;;;;;;6.73;2.83;;;;;;;13.74;100.00;102068.59;5276177;28;20161;-74
2022/10/27 01:58:07;;;;;;;9.33;3.53;;;;;;;13.70;100.00;102069.69;5276215;28;20032;-73
2022/10/27 02:00:53;;;;;;;9.47;3.13;;;;;;;13.70;100.00;102072.31;5257915;28;20474;-74
2022/10/27 02:03:33;;;;;;;7.27;2.57;;;;;;;13.69;100.00;102075.88;5275878;28;20059;-74
2022/10/27 02:06:09;;;;;;;9.47;3.30;;;;;;;13.66;100.00;102071.66;5256594;28;20032;-72
2022/10/27 02:08:49;;;;;;;8.60;3.00;;;;;;;13.60;100.00;102065.84;5276035;28;20398;-73
2022/10/27 02:11:20;;;;;;;6.97;2.60;;;;;;;13.68;100.00;102061.03;5257697;28;20016;-75
2022/10/27 02:13:54;;;;;;;11.67;3.17;;;;;;;13.61;100.00;102059.66;5278468;28;20052;-73
2022/10/27 02:16:31;;;;;;;9.45;3.28;;;;;;;13.42;100.00;102048.28;5261172;28;20469;-74
2022/10/27 02:19:19;;;;;;;8.87;2.77;;;;;;;13.43;100.00;102064.94;5278710;28;20090;-74
2022/10/27 02:21:53;;;;;;;11.33;4.07;;;;;;;13.43;100.00;102054.41;5261006;28;20498;-74
2022/10/27 02:24:25;;;;;;;7.25;3.17;;;;;;;13.45;100.00;102052.56;5279612;28;20040;-74
2022/10/27 02:27:19;;;;;;;11.00;3.17;;;;;;;13.47;100.00;102050.69;5279016;28;20502;-74
2022/10/27 02:29:55;;;;;;;6.47;2.63;;;;;;;13.50;100.00;102049.66;5279165;28;20055;-73
2022/10/27 02:32:28;;;;;;;9.83;2.70;;;;;;;13.39;100.00;102056.34;5278884;28;20028;-73
2022/10/27 02:35:01;;;;;;;7.57;2.80;;;;;;;13.41;100.00;102048.38;5259947;28;20047;-73
2022/10/27 02:37:39;;;;;;;9.60;3.47;;;;;;;13.43;100.00;102049.16;5279140;28;20024;-73
2022/10/27 02:40:10;;;;;;;10.07;2.30;;;;;;;13.40;100.00;102039.66;5279174;28;20119;-73
2022/10/27 02:42:42;;;;;;;7.03;3.00;;;;;;;13.39;100.00;102048.44;5261104;28;20535;-74
2022/10/27 02:45:13;;;;;;;10.93;3.10;;;;;;;13.36;100.00;102040.72;5279022;28;20028;-74
2022/10/27 02:47:45;;;;;;;11.03;3.50;;;;;;;13.37;100.00;102046.84;5260452;28;20032;-74
2022/10/27 02:50:16;;;;;;;9.60;2.83;;;;;;;13.33;100.00;102047.94;5277124;28;20111;-74
2022/10/27 02:52:47;;;;;;;12.13;2.93;;;;;;;13.42;100.00;102042.19;5278275;28;20064;-74
2022/10/27 02:55:18;;;;;;;8.80;3.40;;;;;;;13.34;100.00;102044.34;5279049;28;20084;-71
2022/10/27 02:57:50;;;;;;;7.30;3.33;;;;;;;13.29;100.00;102041.97;5278908;28;20031;-72
2022/10/27 03:00:21;;;;;;;9.90;3.57;;;;;;;13.29;100.00;102040.19;5261142;28;20028;-72
2022/10/27 03:02:52;;;;;;;8.23;2.77;;;;;;;13.30;100.00;102044.53;5278451;28;20035;-73
2022/10/27 03:05:23;;;;;;;11.13;3.10;;;;;;;13.21;100.00;102028.38;5278109;28;20103;-73
2022/10/27 03:07:55;;;;;;;6.50;2.20;;;;;;;13.00;100.00;102023.31;5278704;28;20040;-73
2022/10/27 03:10:26;;;;;;;10.17;2.67;;;;;;;13.01;100.00;102023.22;5278654;28;20028;-73
2022/10/27 03:12:57;;;;;;;6.60;2.57;;;;;;;13.16;100.00;102015.47;5278234;28;20068;-73
2022/10/27 03:15:29;;;;;;;9.43;3.20;;;;;;;13.10;100.00;102007.88;5278491;28;20070;-73
2022/10/27 03:18:00;;;;;;;7.13;2.60;;;;;;;13.15;100.00;101998.84;5278643;28;20033;-74
2022/10/27 03:20:31;;;;;;;7.83;3.00;;;;;;;13.17;100.00;102011.91;5259645;28;20139;-72
2022/10/27 03:23:03;;;;;;;7.03;3.13;;;;;;;13.13;100.00;102007.72;5278668;28;20177;-72
2022/10/27 03:25:36;;;;;;;8.17;3.30;;;;;;;13.14;100.00;102006.81;5277614;28;20111;-73
2022/10/27 03:28:07;;;;;;;9.53;2.80;;;;;;;13.13;100.00;102005.94;5277839;28;20040;-74
2022/10/27 03:30:38;;;;;;;9.77;2.57;;;;;;;13.16;100.00;101994.44;5278434;28;20028;-72
2022/10/27 03:33:09;;;;;;;5.70;2.37;;;;;;;13.11;100.00;102004.34;5277745;28;20043;-72
2022/10/27 03:35:41;;;;;;;5.80;2.60;;;;;;;13.16;100.00;102000.53;5277172;28;20029;-72
2022/10/27 03:38:12;;;;;;;8.30;2.70;;;;;;;13.14;100.00;101996.28;5277852;28;20020;-72
2022/10/27 03:40:43;;;;;;;6.10;2.40;;;;;;;13.11;100.00;102001.72;5278109;28;20035;-73
2022/10/27 03:43:15;;;;;;;6.30;2.40;;;;;;;13.05;100.00;102001.09;5277929;28;20021;-73
2022/10/27 03:45:50;;;;;;;6.60;2.37;;;;;;;13.02;100.00;101997.78;5277691;28;20020;-74
2022/10/27 03:48:21;;;;;;;13.67;2.80;;;;;;;13.00;100.00;102002.25;5259486;28;20025;-73
2022/10/27 03:50:53;;;;;;;10.73;2.90;;;;;;;13.06;100.00;101999.31;5276415;28;20024;-73
2022/10/27 03:53:24;;;;;;;7.50;2.73;;;;;;;13.04;100.00;101994.13;5277637;28;20038;-73
2022/10/27 03:55:55;;;;;;;9.53;2.87;;;;;;;13.01;100.00;101993.44;5277346;28;20029;-73
2022/10/27 03:58:26;;;;;;;8.00;3.00;;;;;;;12.96;100.00;101991.06;5277512;28;20029;-73
2022/10/27 04:01:03;;;;;;;7.03;2.57;;;;;;;12.92;100.00;101987.72;5277240;28;20035;-73
2022/10/27 04:03:34;;;;;;;5.93;2.33;;;;;;;12.99;100.00;101993.50;5259293;28;20511;-73
2022/10/27 04:06:06;;;;;;;6.03;2.63;;;;;;;12.95;100.00;101986.72;5258876;28;20157;-73
2022/10/27 04:08:37;;;;;;;5.63;2.87;;;;;;;12.93;100.00;101985.97;5277458;28;20031;-73
2022/10/27 04:11:08;;;;;;;6.23;2.53;;;;;;;12.89;100.00;101995.78;5277214;28;20390;-72
2022/10/27 04:13:39;;;;;;;13.67;2.93;;;;;;;12.89;100.00;101994.91;5258966;28;20051;-73
2022/10/27 04:16:11;;;;;;;8.63;2.43;;;;;;;12.91;100.00;101996.56;5258957;28;20119;-72
2022/10/27 04:18:42;;;;;;;7.63;3.03;;;;;;;12.90;100.00;101999.22;5275797;28;20044;-73
2022/10/27 04:21:14;;;;;;;10.77;2.87;;;;;;;12.85;100.00;102007.38;5276917;28;20028;-73
2022/10/27 04:23:45;;;;;;;7.43;2.67;;;;;;;12.86;100.00;102013.47;5258823;28;20039;-73
2022/10/27 04:26:16;;;;;;;6.43;2.20;;;;;;;12.80;100.00;102015.50;5276901;28;20410;-73
2022/10/27 04:28:48;;;;;;;8.70;2.97;;;;;;;12.74;100.00;102015.78;5277095;28;20414;-76
2022/10/27 04:31:19;;;;;;;11.90;3.27;;;;;;;12.78;100.00;102017.34;5259222;28;20368;-74
2022/10/27 04:33:50;;;;;;;8.13;3.00;;;;;;;12.68;100.00;102008.22;5275708;28;20044;-76
2022/10/27 04:36:21;;;;;;;7.27;3.07;;;;;;;12.75;100.00;102025.41;5277125;28;20028;-75
2022/10/27 04:38:53;;;;;;;8.77;3.53;;;;;;;12.67;100.00;102020.50;5276826;28;20422;-75
2022/10/27 04:41:24;;;;;;;12.40;4.80;;;;;;;12.74;100.00;102021.03;5270734;28;20051;-75
2022/10/27 04:43:55;;;;;;;9.17;3.73;;;;;;;12.66;100.00;102018.81;5271365;28;20085;-75
2022/10/27 04:46:27;;;;;;;9.53;3.30;;;;;;;12.63;100.00;102005.84;5276554;28;20372;-75
2022/10/27 04:48:58;;;;;;;10.67;3.53;;;;;;;12.72;100.00;102022.94;5275795;28;20025;-74
2022/10/27 04:51:29;;;;;;;12.93;3.73;;;;;;;12.72;100.00;102016.81;5277046;28;20064;-76
2022/10/27 04:54:00;;;;;;;6.80;3.50;;;;;;;12.79;100.00;102013.78;5276342;28;20025;-76
2022/10/27 04:56:32;;;;;;;11.10;3.80;;;;;;;12.78;100.00;102019.97;5276683;28;20105;-75
2022/10/27 04:59:03;;;;;;;7.07;3.60;;;;;;;12.74;100.00;102023.66;5276022;28;20027;-75
2022/10/27 05:01:34;;;;;;;7.77;3.03;;;;;;;12.70;100.00;102022.16;5276414;28;20041;-75
2022/10/27 05:04:05;;;;;;;9.27;3.40;;;;;;;12.73;100.00;102019.34;5275689;28;20017;-75
2022/10/27 05:06:37;;;;;;;14.70;4.17;;;;;;;12.74;100.00;102028.94;5276706;28;20028;-75
2022/10/27 05:09:08;;;;;;;9.47;3.63;;;;;;;12.81;100.00;102025.06;5262648;28;20197;-75
2022/10/27 05:11:39;;;;;;;20.83;4.00;;;;;;;12.84;100.00;102013.56;5277005;28;20024;-75
2022/10/27 05:14:11;;;;;;;10.60;3.70;;;;;;;12.78;100.00;102019.13;5257932;28;20105;-73
2022/10/27 05:16:42;;;;;;;8.77;3.37;;;;;;;12.79;100.00;102013.78;5276548;28;20063;-74
2022/10/27 05:19:13;;;;;;;10.90;3.73;;;;;;;12.81;100.00;102009.31;5275463;28;20021;-76
2022/10/27 05:21:44;;;;;;;10.67;3.87;;;;;;;12.79;100.00;102013.78;5276297;28;20031;-77
2022/10/27 05:24:16;;;;;;;9.80;3.20;;;;;;;12.81;100.00;102016.34;5275796;28;20070;-77
2022/10/27 05:26:47;;;;;;;7.87;3.13;;;;;;;12.90;100.00;102022.91;5258057;28;20047;-77
2022/10/27 05:29:18;;;;;;;7.50;3.60;;;;;;;12.83;100.00;102011.84;5276650;28;20087;-78
2022/10/27 05:31:50;;;;;;;10.30;3.73;;;;;;;12.83;100.00;102003.97;5275935;28;20091;-74
2022/10/27 05:34:22;;;;;;;10.50;3.83;;;;;;;12.77;100.00;102010.41;5275227;28;20703;-78
2022/10/27 05:36:53;;;;;;;13.87;3.70;;;;;;;12.73;100.00;102003.59;5276496;28;20027;-77
2022/10/27 05:39:25;;;;;;;6.47;3.27;;;;;;;12.66;100.00;101997.78;5276507;28;20064;-77
2022/10/27 05:41:56;;;;;;;9.70;3.70;;;;;;;12.70;100.00;102009.00;5276292;28;20037;-77
2022/10/27 05:44:27;;;;;;;11.90;4.13;;;;;;;12.78;100.00;102011.22;5276421;28;20040;-76
2022/10/27 05:46:59;;;;;;;9.60;4.37;;;;;;;12.76;100.00;102003.44;5276056;28;20020;-77
2022/10/27 05:49:30;;;;;;;11.60;3.70;;;;;;;12.80;100.00;102002.34;5279908;28;20032;-77
2022/10/27 05:52:01;;;;;;;5.93;3.57;;;;;;;12.77;100.00;101999.88;5279786;28;20035;-77
2022/10/27 05:54:32;;;;;;;12.90;3.60;;;;;;;12.75;100.00;102006.13;5280660;28;20035;-73
2022/10/27 05:57:04;;;;;;;9.90;4.20;;;;;;;12.73;100.00;102003.59;5279771;28;20029;-79
2022/10/27 05:59:37;;;;;;;13.20;3.70;;;;;;;12.79;100.00;102005.88;5261824;28;20024;-78
2022/10/27 06:02:09;;;;;;;10.98;4.13;;;;;;;12.73;100.00;102002.72;5262098;28;20032;-80
2022/10/27 06:04:41;;;;;;;14.67;4.27;;;;;;;12.70;100.00;102006.38;5279096;28;20024;-81
2022/10/27 06:07:12;;;;;;;11.27;4.03;;;;;;;12.67;100.00;101996.03;5279764;28;20032;-75
2022/10/27 06:09:43;;;;;;;14.53;4.43;;;;;;;12.65;100.00;101997.88;5280028;28;20111;-81
2022/10/27 06:12:14;;;;;;;9.87;3.90;;;;;;;12.71;100.00;101989.66;5262014;28;20084;-78
2022/10/27 06:14:46;;;;;;;9.47;4.10;;;;;;;12.74;100.00;102002.66;5261880;28;20041;-81
2022/10/27 06:17:17;;;;;;;7.80;3.83;;;;;;;12.67;100.00;101990.78;5280004;28;20105;-78
2022/10/27 06:19:48;;;;;;;7.67;3.93;;;;;;;12.70;100.00;101987.97;5278133;28;20028;-82
2022/10/27 06:22:19;;;;;;;7.77;4.03;;;;;;;12.69;100.00;101992.38;5279488;28;20068;-82
2022/10/27 06:24:51;;;;;;;9.13;3.83;;;;;;;12.75;100.00;101985.09;5276797;28;20024;-83
2022/10/27 06:27:22;;;;;;;13.43;5.43;;;;;;;12.73;100.00;101993.06;5251117;28;20090;-81
2022/10/27 06:29:54;;;;;;;6.10;3.50;;;;;;;12.73;100.00;101987.81;5278240;28;20442;-82
2022/10/27 06:32:25;;;;;;;11.33;3.87;;;;;;;12.68;100.00;101995.09;5277256;28;20028;-82
2022/10/27 06:34:56;;;;;;;9.40;2.90;;;;;;;12.77;100.00;101988.50;5293840;28;20549;-76
2022/10/27 06:37:27;;;;;;;7.90;4.17;;;;;;;12.73;100.00;101977.31;5276242;28;20473;-81
2022/10/27 06:39:59;;;;;;;6.67;3.30;;;;;;;12.71;100.00;101981.78;5278217;28;20510;-82
2022/10/27 06:42:33;;;;;;;6.70;3.93;;;;;;;12.67;100.00;101982.88;5285610;28;20059;-73
2022/10/27 06:45:05;;;;;;;9.10;3.40;;;;;;;12.66;100.00;101986.41;5293805;28;20101;-73
2022/10/27 06:47:36;;;;;;;7.30;3.00;;;;;;;12.67;100.00;101980.25;5285365;28;20043;-73
2022/10/27 06:50:08;;;;;;;9.10;3.60;;;;;;;12.56;100.00;101976.38;5284188;28;20095;-72
2022/10/27 06:52:39;;;;;;;10.37;3.43;;;;;;;12.56;100.00;101970.28;5294930;28;20047;-72
2022/10/27 06:55:11;;;;;;;7.77;4.07;;;;;;;12.62;100.00;101969.94;5283160;28;20058;-72
2022/10/27 06:57:42;;;;;;;7.57;4.10;;;;;;;12.58;100.00;101964.00;5279666;28;20024;-73
2022/10/27 07:00:14;;;;;;;10.27;3.47;;;;;;;12.68;100.00;101963.53;5278944;28;20483;-76
2022/10/27 07:02:46;;;;;;;10.80;3.40;;;;;;;12.78;100.00;101969.16;5278395;28;20032;-75
2022/10/27 07:05:18;;;;;;;9.60;3.30;;;;;;;12.70;100.00;101964.31;5279488;28;20039;-71
2022/10/27 07:07:51;;;;;;;6.30;3.70;;;;;;;12.72;100.00;101975.63;5275309;28;20058;-73
2022/10/27 07:10:22;;;;;;;6.87;3.47;;;;;;;12.66;100.00;101954.88;5278214;28;20568;-74
2022/10/27 07:12:58;;;;;;;7.93;3.43;;;;;;;12.74;100.00;101979.00;5296908;28;20039;-73
2022/10/27 07:15:31;;;;;;;9.57;3.50;;;;;;;12.73;100.00;101977.31;5290313;28;20028;-74
2022/10/27 07:18:05;;;;;;;6.87;3.40;;;;;;;12.81;100.00;101984.81;5287831;28;20061;-74
2022/10/27 07:20:40;;;;;;;7.60;2.70;;;;;;;12.78;100.00;101985.81;5280624;28;20380;-72
2022/10/27 07:23:11;;;;;;;;;;;;;;;13.03;100.00;101984.53;5292257;28;20016;-74
2022/10/27 07:25:47;;;;;;;7.00;3.20;;;;;;;12.95;100.00;101984.94;5284121;28;20384;-74
2022/10/27 07:28:18;;;;;;;11.57;3.83;;;;;;;12.96;100.00;101983.16;5291627;28;20043;-74
2022/10/27 07:30:53;;;;;;;10.63;3.53;;;;;;;13.03;100.00;101970.53;5281196;28;20021;-76
2022/10/27 07:33:24;;;;;;;6.77;3.03;;;;;;;13.09;100.00;101969.38;5289118;28;20044;-76
2022/10/27 07:35:56;;;;;;;8.87;3.70;;;;;;;13.15;100.00;101969.91;5272649;28;20117;-76
2022/10/27 07:38:27;;;;;;;5.67;3.03;;;;;;;13.21;100.00;101975.75;5280763;28;20024;-76
2022/10/27 07:40:58;;;;;;;6.83;2.80;;;;;;;13.35;100.00;101975.03;5280205;28;20037;-76
2022/10/27 07:43:30;;;;;;;8.30;3.03;;;;;;;13.40;100.00;101979.13;5288925;28;20024;-76
2022/10/27 07:46:01;;;;;;;6.77;2.70;;;;;;;13.54;100.00;101978.38;5283181;28;20135;-75
2022/10/27 07:48:32;;;;;;;7.37;3.43;;;;;;;13.62;100.00;101983.25;5276214;28;20029;-76
2022/10/27 07:51:03;;;;;;;11.53;3.10;;;;;;;13.71;100.00;101981.88;5279330;28;20391;-75
2022/10/27 07:53:37;;;;;;;11.27;2.87;;;;;;;13.83;100.00;101984.75;5288382;28;20368;-75
2022/10/27 07:56:08;;;;;;;9.05;2.72;;;;;;;13.88;100.00;101985.34;5274841;28;20028;-75
2022/10/27 07:58:39;;;;;;;7.93;2.70;;;;;;;13.94;100.00;101989.44;5293395;28;20012;-75
2022/10/27 08:01:11;;;;;;;10.57;3.20;;;;;;;13.96;100.00;101971.78;5276461;28;20074;-75
2022/10/27 08:03:42;;;;;;;6.53;2.23;;;;;;;14.06;100.00;101978.22;5267272;28;20020;-75
2022/10/27 08:06:13;;;;;;;6.57;2.73;;;;;;;14.10;100.00;101978.91;5263201;28;20024;-75
2022/10/27 08:08:44;;;;;;;4.53;2.40;;;;;;;14.18;100.00;101974.03;5279994;28;20039;-76
2022/10/27 08:11:16;;;;;;;4.47;1.97;;;;;;;14.24;100.00;101973.66;5260243;28;20033;-76
2022/10/27 08:13:47;;;;;;;5.93;2.23;;;;;;;14.28;100.00;101972.56;5286901;28;20052;-74
2022/10/27 08:16:19;;;;;;;7.87;2.90;;;;;;;14.33;100.00;101972.28;5269481;28;20036;-74
2022/10/27 08:18:50;;;;;;;7.03;2.33;;;;;;;14.46;100.00;101969.81;5278192;28;20664;-74
2022/10/27 08:21:22;;;;;;;9.30;2.27;;;;;;;14.59;100.00;101956.72;5289664;28;20048;-73
2022/10/27 08:23:53;;;;;;;13.60;1.77;;;;;;;14.64;100.00;101962.56;5279183;28;20093;-73
2022/10/27 08:26:24;;;;;;;6.03;2.23;;;;;;;14.66;100.00;101970.41;5276371;28;20052;-75
2022/10/27 08:28:55;;;;;;;6.83;3.07;;;;;;;14.78;100.00;101970.63;5279001;28;20518;-75
2022/10/27 08:31:29;;;;;;;5.70;1.83;;;;;;;14.88;100.00;101964.75;5286794;28;20474;-74
2022/10/27 08:34:00;;;;;;;5.28;2.30;;;;;;;14.96;100.00;101963.41;5280507;28;20038;-75
2022/10/27 08:36:37;;;;;;;9.93;2.40;;;;;;;15.00;100.00;101973.69;5276824;28;20383;-75
2022/10/27 08:39:10;;;;;;;8.37;2.80;;;;;;;15.10;100.00;101968.69;5263695;28;20028;-76
2022/10/27 08:42:00;;;;;;;4.57;1.50;;;;;;;15.31;100.00;101956.88;5283775;28;20025;-74
2022/10/27 08:44:38;;;;;;;4.90;1.93;;;;;;;15.38;100.00;101960.84;5286735;28;20028;-76
2022/10/27 08:47:17;;;;;;;5.50;1.37;;;;;;;15.47;100.00;101952.38;5273086;28;20028;-76
2022/10/27 08:50:15;;;;;;;6.53;1.80;;;;;;;15.67;100.00;101966.09;5274521;28;20028;-76
2022/10/27 08:52:58;;;;;;;4.33;1.63;;;;;;;15.85;100.00;101960.56;5292138;28;20115;-76
2022/10/27 08:55:33;;;;;;;7.53;2.17;;;;;;;15.88;100.00;101948.97;5275167;28;20591;-75
2022/10/27 08:58:14;;;;;;;9.73;2.57;;;;;;;16.04;100.00;101930.34;5256248;28;20035;-76
2022/10/27 09:00:55;;;;;;;8.27;3.13;;;;;;;16.43;100.00;101940.97;5289258;28;20035;-76
2022/10/27 09:04:05;;;;;;;9.87;4.80;;;;;;;17.19;100.00;101931.47;5264689;28;20393;-74
2022/10/27 09:07:02;;;;;;;5.10;1.80;;;;;;;17.68;100.00;101916.47;5284396;28;20023;-74
2022/10/27 09:09:45;;;;;;;4.57;1.60;;;;;;;17.57;100.00;101913.78;5276559;28;20036;-75
2022/10/27 09:12:33;;;;;;;8.33;1.10;;;;;;;17.91;100.00;101916.59;5281272;28;20490;-74
2022/10/27 09:15:26;;;;;;;8.13;1.57;;;;;;;18.19;100.00;101919.84;5277406;28;20489;-74
2022/10/27 09:18:21;;;;;;;9.20;4.30;;;;;;;18.40;100.00;101913.88;5274043;28;20437;-76
2022/10/27 09:20:55;;;;;;;6.83;3.20;;;;;;;18.80;100.00;101917.91;5276420;28;20074;-76
2022/10/27 09:23:37;;;;;;;8.60;4.67;;;;;;;18.82;100.00;101925.72;5280298;28;20036;-75
2022/10/27 09:26:10;;;;;;;8.43;1.80;;;;;;;18.72;100.00;101922.97;5273621;28;20418;-75
2022/10/27 09:28:50;;;;;;;5.50;2.47;;;;;;;19.10;100.00;101921.75;5283064;28;20052;-76
2022/10/27 09:31:27;;;;;;;10.17;4.57;;;;;;;19.29;96.49;101912.34;5268580;28;20039;-75
2022/10/27 09:34:05;;;;;;;7.80;4.10;;;;;;;19.10;94.39;101905.81;5284322;28;20123;-75
2022/10/27 09:36:38;;;;;;;6.85;1.90;;;;;;;19.13;99.33;101903.94;5265363;28;20024;-75
2022/10/27 09:39:09;;;;;;;7.70;4.47;;;;;;;19.14;96.47;101906.47;5264035;28;20025;-76
2022/10/27 09:41:40;;;;;;;5.35;1.58;;;;;;;19.10;97.14;101911.13;5289390;28;20107;-77
2022/10/27 09:44:21;;;;;;;4.47;1.65;;;;;;;19.28;100.00;101900.03;5279024;28;20043;-76
2022/10/27 09:46:54;;;;;;;5.22;1.30;;;;;;;19.33;71.98;101899.66;5288744;28;20039;-76
2022/10/27 09:49:39;;;;;;;5.87;1.17;;;;;;;19.34;74.51;101888.06;5260959;28;20512;-76
2022/10/27 09:52:14;;;;;;;3.20;1.52;;;;;;;19.23;72.14;101900.41;5261468;28;20641;-77
2022/10/27 09:54:53;;;;;;;6.20;1.52;;;;;;;19.28;73.84;101893.88;5276154;28;20729;-76
2022/10/27 09:57:33;;;;;;;4.53;2.60;;;;;;;19.25;73.87;101894.13;5263598;28;20028;-76
2022/10/27 10:00:13;;;;;;;4.43;1.35;;;;;;;19.42;73.92;101896.28;5271691;28;20036;-77
2022/10/27 10:03:04;;;;;;;4.18;1.55;;;;;;;19.42;74.84;101908.69;5265257;28;20040;-76
2022/10/27 10:05:36;;;;;;;7.47;1.70;;;;;;;19.53;71.69;101906.00;5257482;28;20038;-74
2022/10/27 10:08:13;;;;;;;5.05;2.00;;;;;;;19.38;72.57;101905.44;5275343;28;20487;-76
2022/10/27 10:10:52;;;;;;;5.03;1.17;;;;;;;19.45;72.94;101890.69;5281099;28;20383;-75
2022/10/27 10:13:26;;;;;;;5.00;1.80;;;;;;;19.31;72.71;101881.19;5291354;28;20499;-76
2022/10/27 10:16:13;;;;;;;6.07;1.23;;;;;;;19.45;72.29;101866.78;5284599;28;20367;-76
2022/10/27 10:19:00;;;;;;;3.85;1.60;;;;;;;19.39;73.23;101871.75;5269317;28;20031;-74
2022/10/27 10:21:45;;;;;;;6.03;2.30;;;;;;;19.33;73.20;101870.44;5267805;28;20046;-76
2022/10/27 10:24:20;;;;;;;6.05;1.35;;;;;;;19.25;73.85;101878.19;5268935;28;20029;-76
2022/10/27 10:26:55;;;;;;;4.47;1.42;;;;;;;19.30;73.16;101876.00;5265975;28;20029;-76
2022/10/27 10:29:44;;;;;;;5.70;1.50;;;;;;;19.18;72.51;101869.88;5285753;28;20025;-76
2022/10/27 10:32:18;;;;;;;11.45;2.42;;;;;;;19.23;74.06;101888.94;5283090;28;20115;-75
2022/10/27 10:34:52;;;;;;;4.97;1.75;;;;;;;19.30;73.03;101883.97;5293105;28;20094;-76
2022/10/27 10:37:30;;;;;;;5.55;1.48;;;;;;;19.31;73.70;101875.88;5275606;28;20024;-76
2022/10/27 10:40:13;;;;;;;6.63;1.60;;;;;;;19.23;73.53;101876.50;5277497;28;20102;-76
2022/10/27 10:42:48;;;;;;;4.63;1.55;;;;;;;19.16;73.30;101853.22;5262058;28;20056;-76
2022/10/27 10:45:22;;;;;;;7.95;2.72;;;;;;;19.30;72.60;101855.63;5291806;28;20032;-75
2022/10/27 10:47:58;;;;;;;7.03;1.85;;;;;;;19.31;73.62;101854.63;5286132;28;20024;-80
2022/10/27 10:50:31;;;;;;;7.07;1.67;;;;;;;19.34;73.16;101856.19;5265804;28;20111;-79
2022/10/27 10:53:02;;;;;;;3.40;1.57;;;;;;;19.40;73.69;101858.34;5271527;28;20445;-77
2022/10/27 10:55:37;;;;;;;2.88;1.75;;;;;;;19.52;73.36;101840.56;5285793;28;20278;-75
2022/10/27 10:58:16;;;;;;;7.93;1.42;;;;;;;19.42;73.99;101850.25;5287217;28;20012;-79
2022/10/27 11:01:00;;;;;;;5.40;1.38;;;;;;;19.59;73.41;101846.22;5262440;28;20056;-81
2022/10/27 11:03:39;;;;;;;8.13;1.98;;;;;;;19.58;72.82;101837.38;5289381;28;20033;-78
2022/10/27 11:06:17;;;;;;;4.82;1.60;;;;;;;19.36;74.24;101842.81;5283271;28;20062;-78
2022/10/27 11:09:00;;;;;;;6.38;2.20;;;;;;;19.43;74.45;101847.47;5291136;28;20024;-81
2022/10/27 11:11:38;;;;;;;4.13;1.92;;;;;;;19.57;73.40;101850.81;5285928;28;20024;-80
2022/10/27 11:14:14;;;;;;;8.93;2.60;;;;;;;19.56;73.60;101854.44;5283899;28;20127;-80
2022/10/27 11:16:54;;;;;;;5.73;1.33;;;;;;;19.64;73.96;101848.47;5263807;28;20508;-78
2022/10/27 11:19:30;;;;;;;5.00;1.60;;;;;;;19.47;74.68;101837.44;5268955;28;20623;-79
2022/10/27 11:22:08;;;;;;;5.10;1.90;;;;;;;19.51;74.07;101835.38;5289707;28;20081;-77
2022/10/27 11:24:58;;;;;;;6.38;2.47;;;;;;;19.49;73.98;101848.78;5280769;28;20479;-76
2022/10/27 11:27:40;;;;;;;7.22;2.55;;;;;;;19.44;74.86;101830.56;5260325;28;20071;-78
2022/10/27 11:30:17;;;;;;;5.30;1.45;;;;;;;19.51;75.13;101849.50;5281468;28;20024;-77
2022/10/27 11:33:22;;;;;;;5.03;1.95;;;;;;;19.44;76.30;101837.69;5292424;28;20030;-76
2022/10/27 11:36:15;;;;;;;4.22;1.55;;;;;;;19.51;76.83;101838.88;5283184;28;20044;-76
2022/10/27 11:39:07;;;;;;;8.27;2.33;;;;;;;19.65;76.26;101836.88;5256704;28;20399;-76
2022/10/27 11:42:28;;;;;;;7.32;1.75;;;;;;;19.65;75.53;101823.59;5273740;28;20344;-78
2022/10/27 11:45:37;;;;;;;10.05;3.25;;;;;;;19.59;76.33;101831.13;5204343;28;20032;-81
2022/10/27 11:48:15;;;;;;;9.68;2.67;;;;;;;19.57;76.00;101824.22;5152420;28;20129;-78
2022/10/27 11:50:52;;;;;;;9.07;2.92;;;;;;;19.50;77.63;101817.72;5246171;28;20040;-76
2022/10/27 11:53:24;;;;;;;12.35;3.00;;;;;;;19.42;77.19;101815.72;5275963;28;20032;-74
2022/10/27 11:56:10;;;;;;;8.90;2.55;;;;;;;19.53;77.21;101822.81;5274687;28;20032;-79